sensor_id;sensor_type;location;lat;lon;timestamp;P1;durP1;ratioP1;P2;durP2;ratioP2
50122;SDS011;36021;48.670;6.184;2022-08-05T00:00:29;3.65;;;1.58;;
50122;SDS011;36021;48.670;6.184;2022-08-05T00:02:55;1.50;;;1.40;;
50122;SDS011;36021;48.670;6.184;2022-08-05T00:05:20;5.75;;;1.60;;
50122;SDS011;36021;48.670;6.184;2022-08-05T00:07:47;4.38;;;1.70;;
50122;SDS011;36021;48.670;6.184;2022-08-05T00:10:14;3.25;;;1.70;;
50122;SDS011;36021;48.670;6.184;2022-08-05T00:12:39;2.67;;;1.42;;
50122;SDS011;36021;48.670;6.184;2022-08-05T00:15:05;6.47;;;1.25;;
50122;SDS011;36021;48.670;6.184;2022-08-05T00:17:32;4.32;;;1.20;;
50122;SDS011;36021;48.670;6.184;2022-08-05T00:20:00;4.68;;;1.63;;
50122;SDS011;36021;48.670;6.184;2022-08-05T00:22:25;1.75;;;1.30;;
50122;SDS011;36021;48.670;6.184;2022-08-05T00:24:51;3.20;;;1.67;;
50122;SDS011;36021;48.670;6.184;2022-08-05T00:27:17;3.08;;;1.20;;
50122;SDS011;36021;48.670;6.184;2022-08-05T00:29:43;3.67;;;1.42;;
50122;SDS011;36021;48.670;6.184;2022-08-05T00:32:09;1.48;;;1.20;;
50122;SDS011;36021;48.670;6.184;2022-08-05T00:34:41;1.88;;;1.17;;
50122;SDS011;36021;48.670;6.184;2022-08-05T00:37:08;1.30;;;1.20;;
50122;SDS011;36021;48.670;6.184;2022-08-05T00:39:33;2.03;;;1.40;;
50122;SDS011;36021;48.670;6.184;2022-08-05T00:41:59;2.50;;;1.13;;
50122;SDS011;36021;48.670;6.184;2022-08-05T00:44:24;2.92;;;1.38;;
50122;SDS011;36021;48.670;6.184;2022-08-05T00:46:50;2.53;;;1.05;;
50122;SDS011;36021;48.670;6.184;2022-08-05T00:49:15;4.60;;;1.00;;
50122;SDS011;36021;48.670;6.184;2022-08-05T00:51:45;2.80;;;1.23;;
50122;SDS011;36021;48.670;6.184;2022-08-05T00:54:11;2.50;;;1.23;;
50122;SDS011;36021;48.670;6.184;2022-08-05T00:56:37;1.55;;;1.00;;
50122;SDS011;36021;48.670;6.184;2022-08-05T00:59:04;4.10;;;1.38;;
50122;SDS011;36021;48.670;6.184;2022-08-05T01:01:30;2.03;;;0.90;;
50122;SDS011;36021;48.670;6.184;2022-08-05T01:03:56;1.63;;;0.90;;
50122;SDS011;36021;48.670;6.184;2022-08-05T01:06:22;3.92;;;1.20;;
50122;SDS011;36021;48.670;6.184;2022-08-05T01:08:49;4.05;;;1.05;;
50122;SDS011;36021;48.670;6.184;2022-08-05T01:11:18;1.40;;;1.00;;
50122;SDS011;36021;48.670;6.184;2022-08-05T01:13:59;1.25;;;1.13;;
50122;SDS011;36021;48.670;6.184;2022-08-05T01:22:10;3.75;;;1.10;;
50122;SDS011;36021;48.670;6.184;2022-08-05T01:25:11;3.60;;;1.33;;
50122;SDS011;36021;48.670;6.184;2022-08-05T01:30:38;0.85;;;0.75;;
50122;SDS011;36021;48.670;6.184;2022-08-05T01:33:17;4.18;;;1.60;;
50122;SDS011;36021;48.670;6.184;2022-08-05T01:35:47;2.38;;;1.55;;
50122;SDS011;36021;48.670;6.184;2022-08-05T01:38:14;3.80;;;1.40;;
50122;SDS011;36021;48.670;6.184;2022-08-05T01:40:42;1.83;;;1.42;;
50122;SDS011;36021;48.670;6.184;2022-08-05T01:43:10;1.60;;;1.50;;
50122;SDS011;36021;48.670;6.184;2022-08-05T01:45:38;2.83;;;1.50;;
50122;SDS011;36021;48.670;6.184;2022-08-05T01:48:04;2.53;;;1.48;;
50122;SDS011;36021;48.670;6.184;2022-08-05T01:50:35;2.35;;;1.30;;
50122;SDS011;36021;48.670;6.184;2022-08-05T01:53:04;3.08;;;1.45;;
50122;SDS011;36021;48.670;6.184;2022-08-05T01:55:34;1.88;;;0.98;;
50122;SDS011;36021;48.670;6.184;2022-08-05T01:58:02;3.50;;;1.85;;
50122;SDS011;36021;48.670;6.184;2022-08-05T02:00:30;1.52;;;1.17;;
50122;SDS011;36021;48.670;6.184;2022-08-05T02:02:59;1.80;;;1.15;;
50122;SDS011;36021;48.670;6.184;2022-08-05T02:05:30;1.67;;;1.45;;
50122;SDS011;36021;48.670;6.184;2022-08-05T02:08:00;2.08;;;1.55;;
50122;SDS011;36021;48.670;6.184;2022-08-05T02:10:27;1.38;;;1.27;;
50122;SDS011;36021;48.670;6.184;2022-08-05T02:15:41;2.30;;;1.55;;
50122;SDS011;36021;48.670;6.184;2022-08-05T02:18:10;2.55;;;1.45;;
50122;SDS011;36021;48.670;6.184;2022-08-05T02:20:47;2.30;;;1.50;;
50122;SDS011;36021;48.670;6.184;2022-08-05T02:23:16;1.30;;;1.20;;
50122;SDS011;36021;48.670;6.184;2022-08-05T02:25:47;2.08;;;1.05;;
50122;SDS011;36021;48.670;6.184;2022-08-05T02:28:15;1.92;;;1.70;;
50122;SDS011;36021;48.670;6.184;2022-08-05T02:30:49;5.05;;;1.20;;
50122;SDS011;36021;48.670;6.184;2022-08-05T02:33:21;1.77;;;1.25;;
50122;SDS011;36021;48.670;6.184;2022-08-05T02:35:48;1.58;;;1.25;;
50122;SDS011;36021;48.670;6.184;2022-08-05T02:38:15;3.25;;;1.50;;
50122;SDS011;36021;48.670;6.184;2022-08-05T02:40:43;3.50;;;1.45;;
50122;SDS011;36021;48.670;6.184;2022-08-05T02:43:10;4.60;;;1.40;;
50122;SDS011;36021;48.670;6.184;2022-08-05T02:45:37;2.20;;;1.75;;
50122;SDS011;36021;48.670;6.184;2022-08-05T02:48:04;5.93;;;2.13;;
50122;SDS011;36021;48.670;6.184;2022-08-05T02:50:33;3.90;;;1.50;;
50122;SDS011;36021;48.670;6.184;2022-08-05T02:53:00;5.90;;;1.80;;
50122;SDS011;36021;48.670;6.184;2022-08-05T02:55:27;5.53;;;1.60;;
50122;SDS011;36021;48.670;6.184;2022-08-05T02:57:54;1.25;;;1.15;;
50122;SDS011;36021;48.670;6.184;2022-08-05T03:00:21;2.90;;;1.65;;
50122;SDS011;36021;48.670;6.184;2022-08-05T03:02:47;1.88;;;1.20;;
50122;SDS011;36021;48.670;6.184;2022-08-05T03:05:13;4.22;;;1.67;;
50122;SDS011;36021;48.670;6.184;2022-08-05T03:07:40;2.55;;;1.50;;
50122;SDS011;36021;48.670;6.184;2022-08-05T03:10:07;3.35;;;1.30;;
50122;SDS011;36021;48.670;6.184;2022-08-05T03:12:34;7.90;;;1.92;;
50122;SDS011;36021;48.670;6.184;2022-08-05T03:15:05;3.15;;;1.40;;
50122;SDS011;36021;48.670;6.184;2022-08-05T03:17:33;2.58;;;1.60;;
50122;SDS011;36021;48.670;6.184;2022-08-05T03:20:02;3.20;;;1.50;;
50122;SDS011;36021;48.670;6.184;2022-08-05T03:22:28;3.10;;;2.03;;
50122;SDS011;36021;48.670;6.184;2022-08-05T03:24:54;4.80;;;2.90;;
50122;SDS011;36021;48.670;6.184;2022-08-05T03:27:20;5.57;;;1.90;;
50122;SDS011;36021;48.670;6.184;2022-08-05T03:29:46;7.68;;;2.25;;
50122;SDS011;36021;48.670;6.184;2022-08-05T03:32:14;3.15;;;1.80;;
50122;SDS011;36021;48.670;6.184;2022-08-05T03:34:41;3.65;;;1.85;;
50122;SDS011;36021;48.670;6.184;2022-08-05T03:37:07;4.10;;;1.92;;
50122;SDS011;36021;48.670;6.184;2022-08-05T03:39:33;2.72;;;1.67;;
50122;SDS011;36021;48.670;6.184;2022-08-05T03:41:59;3.40;;;2.13;;
50122;SDS011;36021;48.670;6.184;2022-08-05T03:44:25;4.28;;;2.00;;
50122;SDS011;36021;48.670;6.184;2022-08-05T03:46:50;2.53;;;2.05;;
50122;SDS011;36021;48.670;6.184;2022-08-05T03:49:17;2.97;;;2.03;;
50122;SDS011;36021;48.670;6.184;2022-08-05T03:51:55;3.97;;;2.22;;
50122;SDS011;36021;48.670;6.184;2022-08-05T03:54:29;4.03;;;1.70;;
50122;SDS011;36021;48.670;6.184;2022-08-05T03:56:59;6.15;;;2.67;;
50122;SDS011;36021;48.670;6.184;2022-08-05T04:02:14;3.58;;;2.25;;
50122;SDS011;36021;48.670;6.184;2022-08-05T04:04:41;4.20;;;2.10;;
50122;SDS011;36021;48.670;6.184;2022-08-05T04:07:09;4.30;;;1.77;;
50122;SDS011;36021;48.670;6.184;2022-08-05T04:09:36;7.03;;;2.53;;
50122;SDS011;36021;48.670;6.184;2022-08-05T04:12:02;5.22;;;2.30;;
50122;SDS011;36021;48.670;6.184;2022-08-05T04:14:27;7.47;;;2.30;;
50122;SDS011;36021;48.670;6.184;2022-08-05T04:16:54;5.03;;;2.38;;
50122;SDS011;36021;48.670;6.184;2022-08-05T04:19:21;4.57;;;2.38;;
50122;SDS011;36021;48.670;6.184;2022-08-05T04:21:47;7.72;;;3.13;;
50122;SDS011;36021;48.670;6.184;2022-08-05T04:24:13;5.22;;;2.30;;
50122;SDS011;36021;48.670;6.184;2022-08-05T04:26:38;6.80;;;2.58;;
50122;SDS011;36021;48.670;6.184;2022-08-05T04:29:04;7.55;;;2.63;;
50122;SDS011;36021;48.670;6.184;2022-08-05T04:31:30;5.40;;;2.88;;
50122;SDS011;36021;48.670;6.184;2022-08-05T04:33:56;2.85;;;2.20;;
50122;SDS011;36021;48.670;6.184;2022-08-05T04:36:22;6.57;;;2.42;;
50122;SDS011;36021;48.670;6.184;2022-08-05T04:38:47;3.47;;;1.92;;
50122;SDS011;36021;48.670;6.184;2022-08-05T04:41:13;3.65;;;2.40;;
50122;SDS011;36021;48.670;6.184;2022-08-05T04:43:38;5.30;;;2.22;;
50122;SDS011;36021;48.670;6.184;2022-08-05T04:46:05;3.58;;;2.38;;
50122;SDS011;36021;48.670;6.184;2022-08-05T04:48:30;4.82;;;2.50;;
50122;SDS011;36021;48.670;6.184;2022-08-05T04:50:56;5.03;;;2.30;;
50122;SDS011;36021;48.670;6.184;2022-08-05T04:53:22;4.38;;;2.30;;
50122;SDS011;36021;48.670;6.184;2022-08-05T04:55:48;5.88;;;1.88;;
50122;SDS011;36021;48.670;6.184;2022-08-05T04:58:15;5.55;;;2.20;;
50122;SDS011;36021;48.670;6.184;2022-08-05T05:00:43;3.10;;;2.15;;
50122;SDS011;36021;48.670;6.184;2022-08-05T05:03:09;7.93;;;2.33;;
50122;SDS011;36021;48.670;6.184;2022-08-05T05:05:35;7.95;;;2.67;;
50122;SDS011;36021;48.670;6.184;2022-08-05T05:08:05;3.90;;;2.45;;
50122;SDS011;36021;48.670;6.184;2022-08-05T05:10:36;3.05;;;2.10;;
50122;SDS011;36021;48.670;6.184;2022-08-05T05:13:08;6.72;;;2.50;;
50122;SDS011;36021;48.670;6.184;2022-08-05T05:15:35;5.07;;;2.03;;
50122;SDS011;36021;48.670;6.184;2022-08-05T05:18:00;5.75;;;2.47;;
50122;SDS011;36021;48.670;6.184;2022-08-05T05:20:27;8.60;;;3.60;;
50122;SDS011;36021;48.670;6.184;2022-08-05T05:22:53;11.95;;;3.13;;
50122;SDS011;36021;48.670;6.184;2022-08-05T05:25:18;11.90;;;3.35;;
50122;SDS011;36021;48.670;6.184;2022-08-05T05:27:44;4.22;;;2.50;;
50122;SDS011;36021;48.670;6.184;2022-08-05T05:30:14;8.57;;;2.42;;
50122;SDS011;36021;48.670;6.184;2022-08-05T05:32:41;6.28;;;2.67;;
50122;SDS011;36021;48.670;6.184;2022-08-05T05:35:06;5.75;;;2.90;;
50122;SDS011;36021;48.670;6.184;2022-08-05T05:37:32;7.00;;;2.50;;
50122;SDS011;36021;48.670;6.184;2022-08-05T05:39:58;4.97;;;2.60;;
50122;SDS011;36021;48.670;6.184;2022-08-05T05:42:23;6.90;;;2.92;;
50122;SDS011;36021;48.670;6.184;2022-08-05T05:44:49;4.88;;;2.15;;
50122;SDS011;36021;48.670;6.184;2022-08-05T05:47:14;5.40;;;2.45;;
50122;SDS011;36021;48.670;6.184;2022-08-05T05:49:40;5.80;;;2.38;;
50122;SDS011;36021;48.670;6.184;2022-08-05T05:52:06;7.32;;;2.20;;
50122;SDS011;36021;48.670;6.184;2022-08-05T05:54:32;5.93;;;2.70;;
50122;SDS011;36021;48.670;6.184;2022-08-05T05:56:57;4.00;;;2.05;;
50122;SDS011;36021;48.670;6.184;2022-08-05T05:59:23;9.18;;;2.53;;
50122;SDS011;36021;48.670;6.184;2022-08-05T06:01:49;8.05;;;2.25;;
50122;SDS011;36021;48.670;6.184;2022-08-05T06:04:14;3.00;;;2.63;;
50122;SDS011;36021;48.670;6.184;2022-08-05T06:06:40;2.83;;;1.73;;
50122;SDS011;36021;48.670;6.184;2022-08-05T06:09:08;5.07;;;2.15;;
50122;SDS011;36021;48.670;6.184;2022-08-05T06:11:34;3.53;;;1.90;;
50122;SDS011;36021;48.670;6.184;2022-08-05T06:14:00;6.50;;;1.70;;
50122;SDS011;36021;48.670;6.184;2022-08-05T06:16:26;2.63;;;1.88;;
50122;SDS011;36021;48.670;6.184;2022-08-05T06:18:52;2.70;;;1.92;;
50122;SDS011;36021;48.670;6.184;2022-08-05T06:21:18;3.90;;;1.70;;
50122;SDS011;36021;48.670;6.184;2022-08-05T06:23:44;3.40;;;1.80;;
50122;SDS011;36021;48.670;6.184;2022-08-05T06:26:10;2.72;;;2.10;;
50122;SDS011;36021;48.670;6.184;2022-08-05T06:28:36;5.78;;;1.80;;
50122;SDS011;36021;48.670;6.184;2022-08-05T06:31:04;2.53;;;1.38;;
50122;SDS011;36021;48.670;6.184;2022-08-05T06:33:32;2.97;;;1.98;;
50122;SDS011;36021;48.670;6.184;2022-08-05T06:35:57;3.33;;;1.70;;
50122;SDS011;36021;48.670;6.184;2022-08-05T06:38:23;5.07;;;2.33;;
50122;SDS011;36021;48.670;6.184;2022-08-05T06:40:49;5.40;;;1.83;;
50122;SDS011;36021;48.670;6.184;2022-08-05T06:43:14;2.85;;;1.85;;
50122;SDS011;36021;48.670;6.184;2022-08-05T06:45:40;6.45;;;2.13;;
50122;SDS011;36021;48.670;6.184;2022-08-05T06:48:05;6.32;;;2.25;;
50122;SDS011;36021;48.670;6.184;2022-08-05T06:50:31;3.15;;;2.20;;
50122;SDS011;36021;48.670;6.184;2022-08-05T06:52:57;2.83;;;1.40;;
50122;SDS011;36021;48.670;6.184;2022-08-05T06:55:22;3.55;;;1.70;;
50122;SDS011;36021;48.670;6.184;2022-08-05T06:57:48;7.20;;;2.70;;
50122;SDS011;36021;48.670;6.184;2022-08-05T07:00:14;3.75;;;2.17;;
50122;SDS011;36021;48.670;6.184;2022-08-05T07:05:11;5.32;;;2.42;;
50122;SDS011;36021;48.670;6.184;2022-08-05T07:07:38;5.63;;;2.90;;
50122;SDS011;36021;48.670;6.184;2022-08-05T07:10:06;5.40;;;2.50;;
50122;SDS011;36021;48.670;6.184;2022-08-05T07:12:32;2.85;;;2.30;;
50122;SDS011;36021;48.670;6.184;2022-08-05T07:15:17;3.13;;;2.30;;
50122;SDS011;36021;48.670;6.184;2022-08-05T07:18:01;4.47;;;2.28;;
50122;SDS011;36021;48.670;6.184;2022-08-05T07:20:31;3.95;;;3.05;;
50122;SDS011;36021;48.670;6.184;2022-08-05T07:22:57;3.92;;;2.00;;
50122;SDS011;36021;48.670;6.184;2022-08-05T07:25:23;4.03;;;2.20;;
50122;SDS011;36021;48.670;6.184;2022-08-05T07:27:49;5.18;;;2.25;;
50122;SDS011;36021;48.670;6.184;2022-08-05T07:30:16;6.85;;;2.25;;
50122;SDS011;36021;48.670;6.184;2022-08-05T07:32:42;3.00;;;1.90;;
50122;SDS011;36021;48.670;6.184;2022-08-05T07:35:08;4.60;;;2.13;;
50122;SDS011;36021;48.670;6.184;2022-08-05T07:37:38;6.15;;;2.70;;
50122;SDS011;36021;48.670;6.184;2022-08-05T07:40:04;5.13;;;2.47;;
50122;SDS011;36021;48.670;6.184;2022-08-05T07:42:31;3.55;;;2.22;;
50122;SDS011;36021;48.670;6.184;2022-08-05T07:44:57;5.03;;;2.50;;
50122;SDS011;36021;48.670;6.184;2022-08-05T07:47:22;6.10;;;2.00;;
50122;SDS011;36021;48.670;6.184;2022-08-05T07:49:48;4.15;;;1.70;;
50122;SDS011;36021;48.670;6.184;2022-08-05T07:52:18;3.40;;;2.00;;
50122;SDS011;36021;48.670;6.184;2022-08-05T07:54:44;5.07;;;2.53;;
50122;SDS011;36021;48.670;6.184;2022-08-05T07:57:11;6.13;;;2.10;;
50122;SDS011;36021;48.670;6.184;2022-08-05T07:59:36;5.57;;;2.38;;
50122;SDS011;36021;48.670;6.184;2022-08-05T08:02:02;6.00;;;1.92;;
50122;SDS011;36021;48.670;6.184;2022-08-05T08:04:28;2.97;;;1.75;;
50122;SDS011;36021;48.670;6.184;2022-08-05T08:06:54;3.75;;;2.03;;
50122;SDS011;36021;48.670;6.184;2022-08-05T08:09:20;3.95;;;1.83;;
50122;SDS011;36021;48.670;6.184;2022-08-05T08:11:48;2.03;;;1.52;;
50122;SDS011;36021;48.670;6.184;2022-08-05T08:14:13;2.15;;;1.38;;
50122;SDS011;36021;48.670;6.184;2022-08-05T08:16:39;3.83;;;1.73;;
50122;SDS011;36021;48.670;6.184;2022-08-05T08:19:07;2.47;;;1.67;;
50122;SDS011;36021;48.670;6.184;2022-08-05T08:21:33;5.78;;;2.00;;
50122;SDS011;36021;48.670;6.184;2022-08-05T08:23:58;2.13;;;1.83;;
50122;SDS011;36021;48.670;6.184;2022-08-05T08:26:24;2.35;;;1.70;;
50122;SDS011;36021;48.670;6.184;2022-08-05T08:28:50;5.00;;;1.70;;
50122;SDS011;36021;48.670;6.184;2022-08-05T08:31:17;1.98;;;1.48;;
50122;SDS011;36021;48.670;6.184;2022-08-05T08:33:45;3.72;;;2.03;;
50122;SDS011;36021;48.670;6.184;2022-08-05T08:36:11;3.65;;;1.77;;
50122;SDS011;36021;48.670;6.184;2022-08-05T08:38:36;2.72;;;1.20;;
50122;SDS011;36021;48.670;6.184;2022-08-05T08:41:05;2.10;;;1.60;;
50122;SDS011;36021;48.670;6.184;2022-08-05T08:43:37;3.15;;;1.80;;
50122;SDS011;36021;48.670;6.184;2022-08-05T08:46:04;2.42;;;1.40;;
50122;SDS011;36021;48.670;6.184;2022-08-05T08:48:30;2.83;;;2.03;;
50122;SDS011;36021;48.670;6.184;2022-08-05T08:50:57;5.47;;;1.67;;
50122;SDS011;36021;48.670;6.184;2022-08-05T08:53:24;2.42;;;1.33;;
50122;SDS011;36021;48.670;6.184;2022-08-05T08:55:52;2.28;;;1.70;;
50122;SDS011;36021;48.670;6.184;2022-08-05T08:58:18;2.13;;;1.50;;
50122;SDS011;36021;48.670;6.184;2022-08-05T09:00:44;2.97;;;1.80;;
50122;SDS011;36021;48.670;6.184;2022-08-05T09:03:12;4.07;;;1.77;;
50122;SDS011;36021;48.670;6.184;2022-08-05T09:05:38;2.08;;;1.55;;
50122;SDS011;36021;48.670;6.184;2022-08-05T09:08:04;4.22;;;1.60;;
50122;SDS011;36021;48.670;6.184;2022-08-05T09:10:30;2.67;;;1.90;;
50122;SDS011;36021;48.670;6.184;2022-08-05T09:12:55;2.15;;;1.40;;
50122;SDS011;36021;48.670;6.184;2022-08-05T09:15:22;3.22;;;1.73;;
50122;SDS011;36021;48.670;6.184;2022-08-05T09:17:49;2.90;;;1.88;;
50122;SDS011;36021;48.670;6.184;2022-08-05T09:20:15;2.50;;;1.55;;
50122;SDS011;36021;48.670;6.184;2022-08-05T09:25:35;3.55;;;2.08;;
50122;SDS011;36021;48.670;6.184;2022-08-05T09:30:36;1.90;;;1.50;;
50122;SDS011;36021;48.670;6.184;2022-08-05T09:33:03;1.10;;;1.00;;
50122;SDS011;36021;48.670;6.184;2022-08-05T09:35:29;3.25;;;1.60;;
50122;SDS011;36021;48.670;6.184;2022-08-05T09:37:55;2.95;;;1.48;;
50122;SDS011;36021;48.670;6.184;2022-08-05T09:40:28;1.83;;;1.30;;
50122;SDS011;36021;48.670;6.184;2022-08-05T09:42:58;2.33;;;1.77;;
50122;SDS011;36021;48.670;6.184;2022-08-05T09:45:38;4.97;;;1.40;;
50122;SDS011;36021;48.670;6.184;2022-08-05T09:48:18;3.80;;;1.65;;
50122;SDS011;36021;48.670;6.184;2022-08-05T09:50:55;1.42;;;1.33;;
50122;SDS011;36021;48.670;6.184;2022-08-05T09:53:22;5.78;;;1.40;;
50122;SDS011;36021;48.670;6.184;2022-08-05T09:56:06;2.47;;;1.60;;
50122;SDS011;36021;48.670;6.184;2022-08-05T09:58:32;2.33;;;1.40;;
50122;SDS011;36021;48.670;6.184;2022-08-05T10:00:59;2.47;;;1.40;;
50122;SDS011;36021;48.670;6.184;2022-08-05T10:06:08;3.42;;;1.60;;
50122;SDS011;36021;48.670;6.184;2022-08-05T10:08:35;5.15;;;1.67;;
50122;SDS011;36021;48.670;6.184;2022-08-05T10:11:14;1.67;;;1.23;;
50122;SDS011;36021;48.670;6.184;2022-08-05T10:13:41;1.70;;;1.42;;
50122;SDS011;36021;48.670;6.184;2022-08-05T10:16:27;2.33;;;1.40;;
50122;SDS011;36021;48.670;6.184;2022-08-05T10:18:59;3.17;;;1.98;;
50122;SDS011;36021;48.670;6.184;2022-08-05T10:21:25;1.23;;;1.13;;
50122;SDS011;36021;48.670;6.184;2022-08-05T10:23:52;2.00;;;1.35;;
50122;SDS011;36021;48.670;6.184;2022-08-05T10:26:19;2.33;;;1.67;;
50122;SDS011;36021;48.670;6.184;2022-08-05T10:28:45;1.58;;;1.48;;
50122;SDS011;36021;48.670;6.184;2022-08-05T10:31:13;1.67;;;1.40;;
50122;SDS011;36021;48.670;6.184;2022-08-05T10:33:40;3.67;;;1.40;;
50122;SDS011;36021;48.670;6.184;2022-08-05T10:36:06;2.00;;;1.38;;
50122;SDS011;36021;48.670;6.184;2022-08-05T10:38:33;2.75;;;1.65;;
50122;SDS011;36021;48.670;6.184;2022-08-05T10:41:15;1.33;;;1.05;;
50122;SDS011;36021;48.670;6.184;2022-08-05T10:46:21;2.42;;;1.73;;
50122;SDS011;36021;48.670;6.184;2022-08-05T10:48:48;2.25;;;1.50;;
50122;SDS011;36021;48.670;6.184;2022-08-05T10:51:19;1.58;;;1.35;;
50122;SDS011;36021;48.670;6.184;2022-08-05T11:01:30;2.13;;;1.33;;
50122;SDS011;36021;48.670;6.184;2022-08-05T11:04:01;1.80;;;1.40;;
50122;SDS011;36021;48.670;6.184;2022-08-05T11:09:47;3.33;;;2.28;;
50122;SDS011;36021;48.670;6.184;2022-08-05T11:12:59;1.33;;;1.23;;
50122;SDS011;36021;48.670;6.184;2022-08-05T11:17:51;2.90;;;1.40;;
50122;SDS011;36021;48.670;6.184;2022-08-05T11:28:49;2.42;;;1.67;;
50122;SDS011;36021;48.670;6.184;2022-08-05T11:36:11;3.83;;;1.40;;
50122;SDS011;36021;48.670;6.184;2022-08-05T11:41:09;1.02;;;0.93;;
50122;SDS011;36021;48.670;6.184;2022-08-05T11:43:43;2.55;;;1.23;;
50122;SDS011;36021;48.670;6.184;2022-08-05T11:46:16;1.20;;;1.03;;
50122;SDS011;36021;48.670;6.184;2022-08-05T11:48:49;1.88;;;1.42;;
50122;SDS011;36021;48.670;6.184;2022-08-05T11:51:15;1.00;;;0.90;;
50122;SDS011;36021;48.670;6.184;2022-08-05T11:53:40;1.88;;;1.30;;
50122;SDS011;36021;48.670;6.184;2022-08-05T11:56:06;1.40;;;1.20;;
50122;SDS011;36021;48.670;6.184;2022-08-05T11:58:39;1.50;;;1.02;;
50122;SDS011;36021;48.670;6.184;2022-08-05T12:01:07;4.28;;;1.20;;
50122;SDS011;36021;48.670;6.184;2022-08-05T12:06:05;1.30;;;1.20;;
50122;SDS011;36021;48.670;6.184;2022-08-05T12:08:31;0.93;;;0.88;;
50122;SDS011;36021;48.670;6.184;2022-08-05T12:10:57;4.70;;;1.02;;
50122;SDS011;36021;48.670;6.184;2022-08-05T12:13:25;4.35;;;1.23;;
50122;SDS011;36021;48.670;6.184;2022-08-05T12:15:50;2.00;;;0.80;;
50122;SDS011;36021;48.670;6.184;2022-08-05T12:18:17;1.67;;;1.05;;
50122;SDS011;36021;48.670;6.184;2022-08-05T12:20:44;1.25;;;1.13;;
50122;SDS011;36021;48.670;6.184;2022-08-05T12:23:10;0.80;;;0.80;;
50122;SDS011;36021;48.670;6.184;2022-08-05T12:25:51;1.20;;;0.93;;
50122;SDS011;36021;48.670;6.184;2022-08-05T12:28:30;1.95;;;0.82;;
50122;SDS011;36021;48.670;6.184;2022-08-05T12:31:00;1.90;;;1.02;;
50122;SDS011;36021;48.670;6.184;2022-08-05T12:33:27;1.57;;;1.10;;
50122;SDS011;36021;48.670;6.184;2022-08-05T12:35:54;1.73;;;0.85;;
50122;SDS011;36021;48.670;6.184;2022-08-05T12:38:21;2.78;;;1.08;;
50122;SDS011;36021;48.670;6.184;2022-08-05T12:40:47;1.48;;;1.00;;
50122;SDS011;36021;48.670;6.184;2022-08-05T12:43:14;1.73;;;1.02;;
50122;SDS011;36021;48.670;6.184;2022-08-05T12:45:52;1.77;;;0.80;;
50122;SDS011;36021;48.670;6.184;2022-08-05T12:48:19;3.20;;;1.17;;
50122;SDS011;36021;48.670;6.184;2022-08-05T12:53:39;1.48;;;1.02;;
50122;SDS011;36021;48.670;6.184;2022-08-05T12:56:16;1.35;;;1.10;;
50122;SDS011;36021;48.670;6.184;2022-08-05T12:58:43;2.92;;;1.40;;
50122;SDS011;36021;48.670;6.184;2022-08-05T13:01:09;2.50;;;0.80;;
50122;SDS011;36021;48.670;6.184;2022-08-05T13:03:37;1.48;;;0.80;;
50122;SDS011;36021;48.670;6.184;2022-08-05T13:06:05;1.75;;;0.90;;
50122;SDS011;36021;48.670;6.184;2022-08-05T13:08:32;0.85;;;0.85;;
50122;SDS011;36021;48.670;6.184;2022-08-05T13:11:00;1.85;;;1.27;;
50122;SDS011;36021;48.670;6.184;2022-08-05T13:13:26;2.38;;;0.98;;
50122;SDS011;36021;48.670;6.184;2022-08-05T13:15:53;2.05;;;0.88;;
50122;SDS011;36021;48.670;6.184;2022-08-05T13:18:19;0.80;;;0.70;;
50122;SDS011;36021;48.670;6.184;2022-08-05T13:20:46;1.77;;;1.33;;
50122;SDS011;36021;48.670;6.184;2022-08-05T13:23:13;3.23;;;1.07;;
50122;SDS011;36021;48.670;6.184;2022-08-05T13:25:38;3.00;;;1.00;;
50122;SDS011;36021;48.670;6.184;2022-08-05T13:28:04;2.00;;;0.70;;
50122;SDS011;36021;48.670;6.184;2022-08-05T13:30:31;1.95;;;1.05;;
50122;SDS011;36021;48.670;6.184;2022-08-05T13:32:56;0.80;;;0.80;;
50122;SDS011;36021;48.670;6.184;2022-08-05T13:35:22;1.40;;;0.90;;
50122;SDS011;36021;48.670;6.184;2022-08-05T13:37:48;1.05;;;0.60;;
50122;SDS011;36021;48.670;6.184;2022-08-05T13:40:14;1.25;;;0.70;;
50122;SDS011;36021;48.670;6.184;2022-08-05T13:42:40;2.72;;;1.00;;
50122;SDS011;36021;48.670;6.184;2022-08-05T13:45:08;1.48;;;0.95;;
50122;SDS011;36021;48.670;6.184;2022-08-05T13:47:34;2.90;;;0.80;;
50122;SDS011;36021;48.670;6.184;2022-08-05T13:50:03;1.35;;;0.80;;
50122;SDS011;36021;48.670;6.184;2022-08-05T13:52:29;0.82;;;0.80;;
50122;SDS011;36021;48.670;6.184;2022-08-05T13:54:55;0.95;;;0.90;;
50122;SDS011;36021;48.670;6.184;2022-08-05T13:57:21;1.02;;;0.85;;
50122;SDS011;36021;48.670;6.184;2022-08-05T13:59:48;4.20;;;0.90;;
50122;SDS011;36021;48.670;6.184;2022-08-05T14:02:14;1.60;;;1.00;;
50122;SDS011;36021;48.670;6.184;2022-08-05T14:04:44;1.30;;;0.80;;
50122;SDS011;36021;48.670;6.184;2022-08-05T14:07:33;2.42;;;1.08;;
50122;SDS011;36021;48.670;6.184;2022-08-05T14:10:04;3.40;;;1.30;;
50122;SDS011;36021;48.670;6.184;2022-08-05T14:12:31;1.95;;;1.30;;
50122;SDS011;36021;48.670;6.184;2022-08-05T14:14:57;1.33;;;0.70;;
50122;SDS011;36021;48.670;6.184;2022-08-05T14:17:22;2.75;;;1.10;;
50122;SDS011;36021;48.670;6.184;2022-08-05T14:19:51;1.10;;;0.70;;
50122;SDS011;36021;48.670;6.184;2022-08-05T14:22:18;2.33;;;1.50;;
50122;SDS011;36021;48.670;6.184;2022-08-05T14:24:45;2.15;;;1.17;;
50122;SDS011;36021;48.670;6.184;2022-08-05T14:27:11;2.53;;;0.90;;
50122;SDS011;36021;48.670;6.184;2022-08-05T14:29:37;0.93;;;0.80;;
50122;SDS011;36021;48.670;6.184;2022-08-05T14:32:04;2.08;;;1.10;;
50122;SDS011;36021;48.670;6.184;2022-08-05T14:34:30;1.92;;;1.00;;
50122;SDS011;36021;48.670;6.184;2022-08-05T14:36:56;2.75;;;0.95;;
50122;SDS011;36021;48.670;6.184;2022-08-05T14:39:22;2.67;;;1.08;;
50122;SDS011;36021;48.670;6.184;2022-08-05T14:41:48;2.42;;;1.45;;
50122;SDS011;36021;48.670;6.184;2022-08-05T14:44:14;1.00;;;0.90;;
50122;SDS011;36021;48.670;6.184;2022-08-05T14:46:39;2.30;;;1.00;;
50122;SDS011;36021;48.670;6.184;2022-08-05T14:49:05;1.55;;;1.10;;
50122;SDS011;36021;48.670;6.184;2022-08-05T14:51:31;1.50;;;0.90;;
50122;SDS011;36021;48.670;6.184;2022-08-05T14:53:57;1.63;;;1.00;;
50122;SDS011;36021;48.670;6.184;2022-08-05T14:56:23;1.08;;;0.88;;
50122;SDS011;36021;48.670;6.184;2022-08-05T14:58:49;2.05;;;1.05;;
50122;SDS011;36021;48.670;6.184;2022-08-05T15:01:16;2.25;;;1.48;;
50122;SDS011;36021;48.670;6.184;2022-08-05T15:03:43;4.72;;;1.15;;
50122;SDS011;36021;48.670;6.184;2022-08-05T15:06:09;2.30;;;1.20;;
50122;SDS011;36021;48.670;6.184;2022-08-05T15:08:35;1.05;;;0.88;;
50122;SDS011;36021;48.670;6.184;2022-08-05T15:11:00;1.38;;;1.00;;
50122;SDS011;36021;48.670;6.184;2022-08-05T15:13:26;1.05;;;0.68;;
50122;SDS011;36021;48.670;6.184;2022-08-05T15:15:52;1.58;;;1.02;;
50122;SDS011;36021;48.670;6.184;2022-08-05T15:18:18;1.13;;;0.85;;
50122;SDS011;36021;48.670;6.184;2022-08-05T15:20:43;1.23;;;0.60;;
50122;SDS011;36021;48.670;6.184;2022-08-05T15:23:10;1.98;;;1.20;;
50122;SDS011;36021;48.670;6.184;2022-08-05T15:25:36;1.27;;;0.88;;
50122;SDS011;36021;48.670;6.184;2022-08-05T15:28:04;2.95;;;0.98;;
50122;SDS011;36021;48.670;6.184;2022-08-05T15:30:31;2.47;;;1.30;;
50122;SDS011;36021;48.670;6.184;2022-08-05T15:32:59;3.13;;;1.10;;
50122;SDS011;36021;48.670;6.184;2022-08-05T15:35:25;1.30;;;1.15;;
50122;SDS011;36021;48.670;6.184;2022-08-05T15:37:51;4.10;;;1.10;;
50122;SDS011;36021;48.670;6.184;2022-08-05T15:40:17;1.02;;;0.90;;
50122;SDS011;36021;48.670;6.184;2022-08-05T15:42:43;4.82;;;1.20;;
50122;SDS011;36021;48.670;6.184;2022-08-05T15:45:09;1.45;;;0.80;;
50122;SDS011;36021;48.670;6.184;2022-08-05T15:47:36;2.70;;;1.25;;
50122;SDS011;36021;48.670;6.184;2022-08-05T15:50:02;3.70;;;1.10;;
50122;SDS011;36021;48.670;6.184;2022-08-05T15:52:29;1.20;;;1.10;;